createdAt,value
2022-11-17T00:00:31.854Z,0.00
2022-11-17T00:01:31.867Z,0.00
2022-11-17T00:02:31.863Z,0.00
2022-11-17T00:03:31.976Z,0.00
2022-11-17T00:04:31.804Z,0.00
2022-11-17T00:05:31.795Z,0.00
2022-11-17T00:06:31.805Z,0.00
2022-11-17T00:07:31.882Z,0.00
2022-11-17T00:08:31.765Z,0.00
2022-11-17T00:09:31.762Z,0.00
2022-11-17T00:10:31.764Z,0.00
2022-11-17T00:11:31.756Z,0.00
2022-11-17T00:12:33.158Z,0.00
2022-11-17T00:13:31.889Z,0.00
2022-11-17T00:14:31.695Z,0.00
2022-11-17T00:15:31.714Z,0.00
2022-11-17T00:16:31.699Z,0.00
2022-11-17T00:17:31.666Z,0.00
2022-11-17T00:18:31.655Z,0.00
2022-11-17T00:19:31.647Z,0.00
2022-11-17T00:20:31.635Z,0.00
2022-11-17T00:21:31.627Z,0.00
2022-11-17T00:22:31.627Z,0.00
2022-11-17T00:23:31.787Z,0.00
2022-11-17T00:24:31.584Z,0.00
2022-11-17T00:25:31.588Z,0.00
2022-11-17T00:26:31.596Z,0.00
2022-11-17T00:27:31.557Z,0.00
2022-11-17T00:28:34.178Z,0.00
2022-11-17T00:29:31.538Z,0.00
2022-11-17T00:30:31.517Z,0.00
2022-11-17T00:31:31.516Z,0.00
2022-11-17T00:32:31.525Z,0.00
2022-11-17T00:33:31.510Z,0.00
2022-11-17T00:34:31.477Z,0.00
2022-11-17T00:35:31.474Z,0.00
2022-11-17T00:36:31.458Z,0.00
2022-11-17T00:37:31.449Z,0.00
2022-11-17T00:38:31.457Z,0.00
2022-11-17T00:39:31.417Z,0.00
2022-11-17T00:40:31.421Z,0.00
2022-11-17T00:41:31.409Z,0.00
2022-11-17T00:42:31.388Z,0.00
2022-11-17T00:43:31.492Z,0.00
2022-11-17T00:44:31.367Z,0.00
2022-11-17T00:45:31.359Z,0.00
2022-11-17T00:46:31.355Z,0.00
2022-11-17T00:47:31.359Z,0.00
2022-11-17T00:48:31.359Z,0.00
2022-11-17T00:49:31.319Z,0.00
2022-11-17T00:50:31.300Z,0.00
2022-11-17T00:51:31.299Z,0.00
2022-11-17T00:52:31.288Z,0.00
2022-11-17T00:53:31.306Z,0.00
2022-11-17T00:54:31.259Z,0.00
2022-11-17T00:55:31.312Z,0.00
2022-11-17T00:56:31.241Z,0.00
2022-11-17T00:57:31.231Z,0.00
2022-11-17T00:58:31.239Z,0.00
2022-11-17T00:59:31.212Z,0.00
2022-11-17T01:00:31.198Z,0.00
2022-11-17T01:01:31.245Z,0.00
2022-11-17T01:02:31.178Z,0.00
2022-11-17T01:03:31.188Z,0.00
2022-11-17T01:04:31.183Z,0.00
2022-11-17T01:05:33.176Z,0.00
2022-11-17T01:06:31.128Z,0.00
2022-11-17T01:07:31.163Z,0.00
2022-11-17T01:08:31.103Z,0.00
2022-11-17T01:09:31.099Z,0.00
2022-11-17T01:10:31.109Z,0.00
2022-11-17T01:11:31.088Z,0.00
2022-11-17T01:12:31.061Z,0.00
2022-11-17T01:13:31.055Z,0.00
2022-11-17T01:14:31.039Z,0.00
2022-11-17T01:15:31.050Z,0.00
2022-11-17T01:16:31.020Z,0.00
2022-11-17T01:17:31.010Z,0.00
2022-11-17T01:18:31.001Z,0.00
2022-11-17T01:19:31.009Z,0.00
2022-11-17T01:20:30.969Z,0.00
2022-11-17T01:21:30.984Z,0.00
2022-11-17T01:22:30.956Z,0.00
2022-11-17T01:23:30.975Z,0.00
2022-11-17T01:24:30.959Z,0.00
2022-11-17T01:25:30.952Z,0.00
2022-11-17T01:26:30.911Z,0.00
2022-11-17T01:27:30.902Z,0.00
2022-11-17T01:28:30.890Z,0.00
2022-11-17T01:29:30.881Z,0.00
2022-11-17T01:30:30.890Z,0.00
2022-11-17T01:31:30.866Z,0.00
2022-11-17T01:32:30.842Z,0.00
2022-11-17T01:33:30.834Z,0.00
2022-11-17T01:34:30.825Z,0.00
2022-11-17T01:35:30.833Z,0.00
2022-11-17T01:36:30.802Z,0.00
2022-11-17T01:37:30.793Z,0.00
2022-11-17T01:38:30.773Z,0.00
2022-11-17T01:39:30.770Z,0.00
2022-11-17T01:40:30.780Z,0.00
2022-11-17T01:41:30.744Z,0.00
2022-11-17T01:42:30.724Z,0.00
2022-11-17T01:43:30.722Z,0.00
2022-11-17T01:44:30.713Z,0.00
2022-11-17T01:45:30.722Z,0.00
2022-11-17T01:46:30.684Z,0.00
2022-11-17T01:47:30.675Z,0.00
2022-11-17T01:48:30.662Z,0.00
2022-11-17T01:49:30.654Z,0.00
2022-11-17T01:50:30.671Z,0.00
2022-11-17T01:51:30.645Z,0.00
2022-11-17T01:52:30.622Z,0.00
2022-11-17T01:53:30.605Z,0.00
2022-11-17T01:54:30.605Z,0.00
2022-11-17T01:55:30.615Z,0.00
2022-11-17T01:56:30.588Z,0.00
2022-11-17T01:57:30.573Z,0.00
2022-11-17T01:58:30.554Z,0.00
2022-11-17T01:59:30.554Z,0.00
2022-11-17T02:00:30.566Z,0.00
2022-11-17T02:01:30.635Z,0.00
2022-11-17T02:02:30.513Z,0.00
2022-11-17T02:03:30.501Z,0.00
2022-11-17T02:04:30.485Z,0.00
2022-11-17T02:05:30.501Z,0.00
2022-11-17T02:06:30.475Z,0.00
2022-11-17T02:07:30.493Z,0.00
2022-11-17T02:08:30.448Z,0.00
2022-11-17T02:09:30.433Z,0.00
2022-11-17T02:10:30.425Z,0.00
2022-11-17T02:11:30.432Z,0.00
2022-11-17T02:12:30.403Z,0.00
2022-11-17T02:13:30.384Z,0.00
2022-11-17T02:14:30.386Z,0.00
2022-11-17T02:15:30.367Z,0.00
2022-11-17T02:16:30.385Z,0.00
2022-11-17T02:17:30.355Z,0.00
2022-11-17T02:18:30.334Z,0.00
2022-11-17T02:19:30.337Z,0.00
2022-11-17T02:20:30.323Z,0.00
2022-11-17T02:21:30.334Z,0.00
2022-11-17T02:22:30.296Z,0.00
2022-11-17T02:23:30.284Z,0.00
2022-11-17T02:24:30.278Z,0.00
2022-11-17T02:25:30.268Z,0.00
2022-11-17T02:26:30.274Z,0.00
2022-11-17T02:27:30.235Z,0.00
2022-11-17T02:28:30.235Z,0.00
2022-11-17T02:29:30.221Z,0.00
2022-11-17T02:30:30.205Z,0.00
2022-11-17T02:31:30.237Z,0.00
2022-11-17T02:32:30.186Z,0.00
2022-11-17T02:33:30.165Z,0.00
2022-11-17T02:34:30.164Z,0.00
2022-11-17T02:35:30.154Z,0.00
2022-11-17T02:36:30.146Z,0.00
2022-11-17T02:37:30.148Z,0.00
2022-11-17T02:38:30.116Z,0.00
2022-11-17T02:39:30.105Z,0.00
2022-11-17T02:40:30.098Z,0.00
2022-11-17T02:41:30.091Z,0.00
2022-11-17T02:42:30.097Z,0.00
2022-11-17T02:43:30.065Z,0.00
2022-11-17T02:44:30.056Z,0.00
2022-11-17T02:45:30.048Z,0.00
2022-11-17T02:46:30.039Z,0.00
2022-11-17T02:47:30.049Z,0.00
2022-11-17T02:48:30.007Z,0.00
2022-11-17T02:49:30.006Z,0.00
2022-11-17T02:50:29.991Z,0.00
2022-11-17T02:51:29.978Z,0.00
2022-11-17T02:52:29.967Z,0.00
2022-11-17T02:53:29.974Z,0.00
2022-11-17T02:54:29.946Z,0.00
2022-11-17T02:55:29.934Z,0.00
2022-11-17T02:56:29.925Z,0.00
2022-11-17T02:57:29.936Z,0.00
2022-11-17T02:58:29.936Z,0.00
2022-11-17T02:59:29.891Z,0.00
2022-11-17T03:00:29.877Z,0.00
2022-11-17T03:01:29.937Z,0.00
2022-11-17T03:02:29.888Z,0.00
2022-11-17T03:03:29.838Z,0.00
2022-11-17T03:04:29.837Z,0.00
2022-11-17T03:05:29.820Z,0.00
2022-11-17T03:06:29.809Z,0.00
2022-11-17T03:07:29.861Z,0.00
2022-11-17T03:08:32.915Z,0.00
2022-11-17T03:09:29.778Z,0.00
2022-11-17T03:10:29.769Z,0.00
2022-11-17T03:11:29.757Z,0.00
2022-11-17T03:12:29.776Z,0.00
2022-11-17T03:13:29.739Z,0.00
2022-11-17T03:14:29.729Z,0.00
2022-11-17T03:15:29.720Z,0.00
2022-11-17T03:16:29.835Z,0.00
2022-11-17T03:17:29.731Z,0.00
2022-11-17T03:18:29.687Z,0.00
2022-11-17T03:19:29.677Z,0.00
2022-11-17T03:20:29.668Z,0.00
2022-11-17T03:21:29.648Z,0.00
2022-11-17T03:22:29.658Z,0.00
2022-11-17T03:23:29.683Z,0.00
2022-11-17T03:24:29.619Z,0.00
2022-11-17T03:25:29.608Z,0.00
2022-11-17T03:26:29.598Z,0.00
2022-11-17T03:27:29.609Z,0.00
2022-11-17T03:28:29.579Z,0.00
2022-11-17T03:29:29.567Z,0.00
2022-11-17T03:30:33.284Z,0.00
2022-11-17T03:31:30.545Z,0.00
2022-11-17T03:32:29.563Z,0.00
2022-11-17T03:33:29.636Z,0.00
2022-11-17T03:34:29.520Z,0.00
2022-11-17T03:35:29.500Z,0.00
2022-11-17T03:36:29.524Z,0.00
2022-11-17T03:37:29.477Z,0.00
2022-11-17T03:38:29.498Z,0.00
2022-11-17T03:39:29.450Z,0.00
2022-11-17T03:40:29.449Z,0.00
2022-11-17T03:41:29.440Z,0.00
2022-11-17T03:42:29.432Z,0.00
2022-11-17T03:43:29.439Z,0.00
2022-11-17T03:44:29.409Z,0.00
2022-11-17T03:45:29.392Z,0.00
2022-11-17T03:46:29.382Z,0.00
2022-11-17T03:47:29.370Z,0.00
2022-11-17T03:48:29.380Z,0.00
2022-11-17T03:49:29.347Z,0.00
2022-11-17T03:50:29.343Z,0.00
2022-11-17T03:51:29.321Z,0.00
2022-11-17T03:52:29.318Z,0.00
2022-11-17T03:53:29.330Z,0.00
2022-11-17T03:54:29.298Z,0.00
2022-11-17T03:55:29.289Z,0.00
2022-11-17T03:56:29.281Z,0.00
2022-11-17T03:57:29.264Z,0.00
2022-11-17T03:58:29.271Z,0.00
2022-11-17T03:59:29.239Z,0.00
2022-11-17T04:00:29.241Z,0.00
2022-11-17T04:01:29.274Z,0.00
2022-11-17T04:02:29.210Z,0.00
2022-11-17T04:03:29.224Z,0.00
2022-11-17T04:04:29.183Z,0.00
2022-11-17T04:05:29.203Z,0.00
2022-11-17T04:06:29.171Z,0.00
2022-11-17T04:07:29.207Z,0.00
2022-11-17T04:08:29.157Z,0.00
2022-11-17T04:09:29.134Z,0.00
2022-11-17T04:10:29.153Z,0.00
2022-11-17T04:11:29.114Z,0.00
2022-11-17T04:12:50.119Z,0.00
2022-11-17T04:13:29.092Z,0.00
2022-11-17T04:14:29.084Z,0.00
2022-11-17T04:15:29.097Z,0.00
2022-11-17T04:16:29.072Z,0.00
2022-11-17T04:17:29.043Z,0.00
2022-11-17T04:18:29.033Z,0.00
2022-11-17T04:19:29.030Z,0.00
2022-11-17T04:20:29.021Z,0.00
2022-11-17T04:21:29.023Z,0.00
2022-11-17T04:22:28.992Z,0.00
2022-11-17T04:23:28.990Z,0.00
2022-11-17T04:24:28.966Z,0.00
2022-11-17T04:25:28.963Z,0.00
2022-11-17T04:26:28.973Z,0.00
2022-11-17T04:27:28.940Z,0.00
2022-11-17T04:28:28.926Z,0.00
2022-11-17T04:29:28.923Z,0.00
2022-11-17T04:30:28.902Z,0.00
2022-11-17T04:31:28.925Z,0.00
2022-11-17T04:32:28.884Z,0.00
2022-11-17T04:33:28.882Z,0.00
2022-11-17T04:34:28.865Z,0.00
2022-11-17T04:35:28.855Z,0.00
2022-11-17T04:36:28.864Z,0.00
2022-11-17T04:37:28.833Z,0.00
2022-11-17T04:38:28.816Z,0.00
2022-11-17T04:39:28.804Z,0.00
2022-11-17T04:40:28.796Z,0.00
2022-11-17T04:41:28.815Z,0.00
2022-11-17T04:42:28.773Z,0.00
2022-11-17T04:43:28.764Z,0.00
2022-11-17T04:44:28.755Z,0.00
2022-11-17T04:45:28.749Z,0.00
2022-11-17T04:46:28.748Z,0.00
2022-11-17T04:47:28.743Z,0.00
2022-11-17T04:48:28.704Z,0.00
2022-11-17T04:49:28.702Z,0.00
2022-11-17T04:50:28.695Z,0.00
2022-11-17T04:51:28.675Z,0.00
2022-11-17T04:52:30.046Z,0.00
2022-11-17T04:53:28.666Z,0.00
2022-11-17T04:54:28.646Z,0.00
2022-11-17T04:55:28.686Z,0.00
2022-11-17T04:56:28.645Z,0.00
2022-11-17T04:57:28.617Z,0.00
2022-11-17T04:58:28.602Z,0.00
2022-11-17T04:59:28.595Z,0.00
2022-11-17T05:00:28.736Z,0.00
2022-11-17T05:01:28.580Z,0.00
2022-11-17T05:02:28.607Z,0.00
2022-11-17T05:03:28.554Z,0.00
2022-11-17T05:04:28.565Z,0.00
2022-11-17T05:05:28.536Z,0.00
2022-11-17T05:06:28.521Z,0.00
2022-11-17T05:07:28.645Z,0.00
2022-11-17T05:08:28.503Z,0.00
2022-11-17T05:09:28.496Z,0.00
2022-11-17T05:10:28.468Z,0.00
2022-11-17T05:11:28.488Z,0.00
2022-11-17T05:12:28.468Z,0.00
2022-11-17T05:13:28.448Z,0.00
2022-11-17T05:14:28.428Z,0.00
2022-11-17T05:15:28.417Z,0.00
2022-11-17T05:16:28.408Z,0.00
2022-11-17T05:17:28.421Z,0.00
2022-11-17T05:18:28.380Z,0.00
2022-11-17T05:19:28.379Z,0.00
2022-11-17T05:20:28.367Z,0.00
2022-11-17T05:21:28.381Z,0.00
2022-11-17T05:22:28.379Z,0.00
2022-11-17T05:23:28.338Z,0.00
2022-11-17T05:24:28.328Z,0.00
2022-11-17T05:25:28.310Z,0.00
2022-11-17T05:26:28.298Z,0.00
2022-11-17T05:27:28.300Z,0.00
2022-11-17T05:28:28.370Z,0.00
2022-11-17T05:29:28.334Z,0.00
2022-11-17T05:30:28.318Z,0.00
2022-11-17T05:31:28.334Z,0.00
2022-11-17T05:32:28.452Z,0.00
2022-11-17T05:33:31.278Z,0.00
2022-11-17T05:34:29.209Z,0.00
2022-11-17T05:35:28.201Z,0.00
2022-11-17T05:36:28.189Z,0.00
2022-11-17T05:37:28.182Z,0.00
2022-11-17T05:38:28.169Z,0.00
2022-11-17T05:39:28.179Z,0.00
2022-11-17T05:40:28.151Z,0.00
2022-11-17T05:41:28.143Z,0.00
2022-11-17T05:42:28.121Z,0.00
2022-11-17T05:43:28.145Z,0.00
2022-11-17T05:44:28.100Z,0.00
2022-11-17T05:45:28.097Z,0.00
2022-11-17T05:46:28.081Z,0.00
2022-11-17T05:47:28.073Z,0.00
2022-11-17T05:48:28.080Z,0.00
2022-11-17T05:49:28.078Z,0.00
2022-11-17T05:50:28.032Z,0.00
2022-11-17T05:51:28.030Z,0.00
2022-11-17T05:52:28.065Z,0.00
2022-11-17T05:53:28.041Z,0.00
2022-11-17T05:54:28.034Z,0.00
2022-11-17T05:55:27.982Z,0.00
2022-11-17T05:56:27.977Z,0.00
2022-11-17T05:57:27.962Z,0.00
2022-11-17T05:58:27.962Z,0.00
2022-11-17T05:59:28.438Z,0.00
2022-11-17T06:00:27.961Z,0.00
2022-11-17T06:01:27.925Z,0.00
2022-11-17T06:02:27.911Z,0.00
2022-11-17T06:03:27.912Z,0.00
2022-11-17T06:04:27.938Z,0.00
2022-11-17T06:05:27.871Z,0.00
2022-11-17T06:06:27.870Z,0.00
2022-11-17T06:07:27.915Z,0.00
2022-11-17T06:08:27.884Z,0.00
2022-11-17T06:09:27.853Z,0.00
2022-11-17T06:10:27.862Z,0.00
2022-11-17T06:11:27.823Z,0.00
2022-11-17T06:12:27.875Z,0.00
2022-11-17T06:13:27.796Z,0.00
2022-11-17T06:14:27.802Z,0.00
2022-11-17T06:15:27.766Z,0.00
2022-11-17T06:16:27.751Z,0.00
2022-11-17T06:17:27.742Z,0.00
2022-11-17T06:18:27.775Z,0.00
2022-11-17T06:19:27.756Z,0.00
2022-11-17T06:20:27.732Z,0.00
2022-11-17T06:21:43.095Z,0.00
2022-11-17T06:22:28.684Z,0.00
2022-11-17T06:23:27.682Z,0.00
2022-11-17T06:24:27.665Z,0.00
2022-11-17T06:25:27.675Z,0.00
2022-11-17T06:26:27.655Z,0.00
2022-11-17T06:27:27.632Z,0.00
2022-11-17T06:28:27.627Z,0.00
2022-11-17T06:29:27.635Z,0.00
2022-11-17T06:30:27.623Z,0.00
2022-11-17T06:31:27.594Z,0.00
2022-11-17T06:32:27.583Z,0.00
2022-11-17T06:33:27.644Z,0.00
2022-11-17T06:34:27.562Z,0.00
2022-11-17T06:35:27.545Z,0.00
2022-11-17T06:36:27.565Z,0.00
2022-11-17T06:37:28.062Z,0.00
2022-11-17T06:38:27.523Z,0.00
2022-11-17T06:39:27.516Z,0.00
2022-11-17T06:40:27.505Z,0.00
2022-11-17T06:41:27.514Z,0.00
2022-11-17T06:42:27.477Z,0.00
2022-11-17T06:43:27.467Z,0.00
2022-11-17T06:44:27.447Z,0.00
2022-11-17T06:45:27.435Z,0.00
2022-11-17T06:46:27.447Z,0.00
2022-11-17T06:47:27.424Z,0.00
2022-11-17T06:48:27.416Z,0.00
2022-11-17T06:49:27.387Z,0.00
2022-11-17T06:50:27.394Z,0.00
2022-11-17T06:51:27.396Z,0.00
2022-11-17T06:52:27.387Z,0.00
2022-11-17T06:53:27.389Z,0.00
2022-11-17T06:54:27.365Z,0.00
2022-11-17T06:55:27.353Z,0.00
2022-11-17T06:56:27.385Z,0.00
2022-11-17T06:57:27.341Z,0.00
2022-11-17T06:58:27.324Z,0.00
2022-11-17T06:59:27.314Z,0.00
2022-11-17T07:00:27.386Z,0.00
2022-11-17T07:01:27.361Z,0.00
2022-11-17T07:02:27.284Z,0.00
2022-11-17T07:03:27.286Z,0.00
2022-11-17T07:04:27.271Z,5.62
2022-11-17T07:05:27.251Z,5.62
2022-11-17T07:06:27.263Z,5.62
2022-11-17T07:07:27.266Z,5.62
2022-11-17T07:08:27.217Z,5.62
2022-11-17T07:09:27.215Z,5.62
2022-11-17T07:10:27.198Z,5.62
2022-11-17T07:11:27.207Z,11.25
2022-11-17T07:12:27.175Z,11.25
2022-11-17T07:13:27.176Z,5.62
2022-11-17T07:14:27.161Z,5.62
2022-11-17T07:15:27.147Z,11.25
2022-11-17T07:16:27.152Z,11.25
2022-11-17T07:17:27.125Z,11.25
2022-11-17T07:18:27.105Z,11.25
2022-11-17T07:19:27.098Z,16.88
2022-11-17T07:20:27.086Z,11.25
2022-11-17T07:21:27.105Z,11.25
2022-11-17T07:22:27.071Z,11.25
2022-11-17T07:23:27.075Z,11.25
2022-11-17T07:24:27.047Z,11.25
2022-11-17T07:25:27.031Z,11.25
2022-11-17T07:26:27.047Z,16.88
2022-11-17T07:27:27.007Z,16.88
2022-11-17T07:28:26.998Z,22.50
2022-11-17T07:29:26.989Z,22.50
2022-11-17T07:30:27.049Z,22.50
2022-11-17T07:31:26.966Z,22.50
2022-11-17T07:32:26.978Z,22.50
2022-11-17T07:33:26.955Z,22.50
2022-11-17T07:34:26.938Z,22.50
2022-11-17T07:35:26.926Z,22.50
2022-11-17T07:36:26.938Z,22.50
2022-11-17T07:37:26.907Z,22.50
2022-11-17T07:38:26.896Z,16.88
2022-11-17T07:39:26.879Z,16.88
2022-11-17T07:40:26.883Z,16.88
2022-11-17T07:41:26.878Z,16.88
2022-11-17T07:42:26.857Z,16.88
2022-11-17T07:43:26.847Z,16.88
2022-11-17T07:44:26.848Z,16.88
2022-11-17T07:45:31.611Z,16.88
2022-11-17T07:46:27.807Z,22.50
2022-11-17T07:47:26.797Z,33.75
2022-11-17T07:48:26.786Z,39.38
2022-11-17T07:49:26.797Z,39.38
2022-11-17T07:50:26.767Z,45.00
2022-11-17T07:51:26.779Z,45.00
2022-11-17T07:52:26.737Z,39.38
2022-11-17T07:53:26.739Z,45.00
2022-11-17T07:54:26.749Z,56.25
2022-11-17T07:55:26.708Z,56.25
2022-11-17T07:56:26.709Z,56.25
2022-11-17T07:57:26.687Z,45.00
2022-11-17T07:58:26.677Z,33.75
2022-11-17T07:59:26.687Z,33.75
2022-11-17T08:00:26.658Z,28.12
2022-11-17T08:01:26.665Z,28.12
2022-11-17T08:02:26.644Z,33.75
2022-11-17T08:03:26.683Z,45.00
2022-11-17T08:04:26.639Z,33.75
2022-11-17T08:05:26.628Z,22.50
2022-11-17T08:06:26.592Z,22.50
2022-11-17T08:07:26.630Z,22.50
2022-11-17T08:08:26.567Z,28.12
2022-11-17T08:09:26.557Z,28.12
2022-11-17T08:10:26.551Z,39.38
2022-11-17T08:11:26.559Z,45.00
2022-11-17T08:12:26.549Z,39.38
2022-11-17T08:13:26.529Z,39.38
2022-11-17T08:14:26.509Z,39.38
2022-11-17T08:15:26.491Z,28.12
2022-11-17T08:16:26.487Z,33.75
2022-11-17T08:17:26.492Z,33.75
2022-11-17T08:18:26.476Z,33.75
2022-11-17T08:19:26.452Z,33.75
2022-11-17T08:20:26.441Z,33.75
2022-11-17T08:21:26.432Z,33.75
2022-11-17T08:22:26.449Z,39.38
2022-11-17T08:23:26.420Z,45.00
2022-11-17T08:24:26.401Z,50.62
2022-11-17T08:25:26.387Z,61.88
2022-11-17T08:26:26.381Z,67.50
2022-11-17T08:27:26.361Z,67.50
2022-11-17T08:28:26.373Z,78.75
2022-11-17T08:29:26.341Z,73.12
2022-11-17T08:30:26.345Z,78.75
2022-11-17T08:31:26.325Z,84.38
2022-11-17T08:32:26.421Z,95.62
2022-11-17T08:33:26.344Z,101.25
2022-11-17T08:34:26.291Z,95.62
2022-11-17T08:35:26.279Z,101.25
2022-11-17T08:36:26.270Z,106.88
2022-11-17T08:37:26.253Z,101.25
2022-11-17T08:38:26.270Z,90.00
2022-11-17T08:39:26.267Z,95.62
2022-11-17T08:40:26.222Z,106.88
2022-11-17T08:41:26.213Z,90.00
2022-11-17T08:42:26.208Z,95.62
2022-11-17T08:43:26.224Z,112.50
2022-11-17T08:44:26.204Z,135.00
2022-11-17T08:45:26.173Z,135.00
2022-11-17T08:46:26.161Z,140.62
2022-11-17T08:47:26.181Z,157.50
2022-11-17T08:48:26.140Z,185.62
2022-11-17T08:49:26.148Z,180.00
2022-11-17T08:50:26.120Z,157.50
2022-11-17T08:51:26.110Z,140.62
2022-11-17T08:52:26.102Z,135.00
2022-11-17T08:53:26.093Z,118.12
2022-11-17T08:54:26.094Z,106.88
2022-11-17T08:55:26.218Z,101.25
2022-11-17T08:56:26.051Z,106.88
2022-11-17T08:57:26.057Z,112.50
2022-11-17T08:58:26.008Z,118.12
2022-11-17T08:59:26.020Z,112.50
2022-11-17T09:00:25.987Z,118.12
2022-11-17T09:01:26.040Z,140.62
2022-11-17T09:02:25.975Z,163.12
2022-11-17T09:03:25.977Z,185.62
2022-11-17T09:04:25.970Z,185.62
2022-11-17T09:05:25.946Z,174.38
2022-11-17T09:06:25.921Z,168.75
2022-11-17T09:07:28.372Z,106.88
2022-11-17T09:09:26.932Z,73.12
2022-11-17T09:10:25.902Z,84.38
2022-11-17T09:11:25.869Z,101.25
2022-11-17T09:12:25.858Z,95.62
2022-11-17T09:13:25.859Z,123.75
2022-11-17T09:14:25.840Z,168.75
2022-11-17T09:15:25.847Z,180.00
2022-11-17T09:16:25.819Z,174.38
2022-11-17T09:17:25.800Z,163.12
2022-11-17T09:18:25.790Z,140.62
2022-11-17T09:19:25.780Z,84.38
2022-11-17T09:20:25.790Z,90.00
2022-11-17T09:21:25.763Z,106.88
2022-11-17T09:22:25.751Z,73.12
2022-11-17T09:23:25.750Z,73.12
2022-11-17T09:24:25.728Z,73.12
2022-11-17T09:25:25.733Z,56.25
2022-11-17T09:26:25.708Z,50.62
2022-11-17T09:27:25.693Z,61.88
2022-11-17T09:28:25.682Z,61.88
2022-11-17T09:29:25.669Z,61.88
2022-11-17T09:30:25.658Z,84.38
2022-11-17T09:31:25.693Z,118.12
2022-11-17T09:32:25.641Z,174.38
2022-11-17T09:33:25.632Z,157.50
2022-11-17T09:34:25.666Z,151.88
2022-11-17T09:35:25.603Z,174.38
2022-11-17T09:36:25.621Z,185.62
2022-11-17T09:37:25.583Z,174.38
2022-11-17T09:38:25.571Z,191.25
2022-11-17T09:39:25.564Z,163.12
2022-11-17T09:40:25.551Z,180.00
2022-11-17T09:41:25.561Z,185.62
2022-11-17T09:42:25.535Z,196.88
2022-11-17T09:43:25.530Z,191.25
2022-11-17T09:44:25.512Z,185.62
2022-11-17T09:45:25.493Z,202.50
2022-11-17T09:46:25.492Z,191.25
2022-11-17T09:47:25.494Z,213.75
2022-11-17T09:48:40.823Z,219.38
2022-11-17T09:49:26.453Z,236.25
2022-11-17T09:50:25.444Z,213.75
2022-11-17T09:51:25.431Z,208.12
2022-11-17T09:52:25.443Z,241.88
2022-11-17T09:53:25.421Z,230.62
2022-11-17T09:54:25.395Z,258.75
2022-11-17T09:55:28.503Z,253.12
2022-11-17T09:56:26.376Z,241.88
2022-11-17T09:57:25.365Z,196.88
2022-11-17T09:58:25.381Z,191.25
2022-11-17T09:59:25.335Z,202.50
2022-11-17T10:00:25.336Z,213.75
2022-11-17T10:01:25.316Z,191.25
2022-11-17T10:02:25.359Z,196.88
2022-11-17T10:03:25.344Z,202.50
2022-11-17T10:04:25.284Z,213.75
2022-11-17T10:05:25.274Z,202.50
2022-11-17T10:06:25.265Z,219.38
2022-11-17T10:07:25.386Z,247.50
2022-11-17T10:08:25.265Z,230.62
2022-11-17T10:09:26.111Z,236.25
2022-11-17T10:10:25.215Z,241.88
2022-11-17T10:11:25.197Z,225.00
2022-11-17T10:12:25.195Z,213.75
2022-11-17T10:13:25.242Z,196.88
2022-11-17T10:14:25.170Z,196.88
2022-11-17T10:15:25.157Z,213.75
2022-11-17T10:16:25.147Z,213.75
2022-11-17T10:17:25.136Z,213.75
2022-11-17T10:18:25.155Z,208.12
2022-11-17T10:19:25.115Z,208.12
2022-11-17T10:20:25.098Z,202.50
2022-11-17T10:21:25.095Z,225.00
2022-11-17T10:22:25.083Z,219.38
2022-11-17T10:23:25.090Z,213.75
2022-11-17T10:24:25.048Z,208.12
2022-11-17T10:25:25.056Z,191.25
2022-11-17T10:26:25.030Z,180.00
2022-11-17T10:27:25.026Z,157.50
2022-11-17T10:28:25.037Z,129.38
2022-11-17T10:29:24.999Z,140.62
2022-11-17T10:30:24.978Z,123.75
2022-11-17T10:31:24.978Z,101.25
2022-11-17T10:32:24.964Z,90.00
2022-11-17T10:33:24.959Z,90.00
2022-11-17T10:34:29.818Z,101.25
2022-11-17T10:35:25.930Z,106.88
2022-11-17T10:36:24.918Z,118.12
2022-11-17T10:37:24.906Z,135.00
2022-11-17T10:38:24.913Z,157.50
2022-11-17T10:39:24.887Z,174.38
2022-11-17T10:40:25.955Z,185.62
2022-11-17T10:41:24.863Z,225.00
2022-11-17T10:42:24.842Z,275.62
2022-11-17T10:43:24.866Z,298.12
2022-11-17T10:44:24.828Z,320.62
2022-11-17T10:45:24.810Z,348.75
2022-11-17T10:46:24.798Z,365.62
2022-11-17T10:47:24.791Z,388.12
2022-11-17T10:48:24.786Z,388.12
2022-11-17T10:49:24.790Z,399.38
2022-11-17T10:50:24.759Z,399.38
2022-11-17T10:51:24.752Z,399.38
2022-11-17T10:52:24.733Z,393.75
2022-11-17T10:53:24.729Z,371.25
2022-11-17T10:54:24.730Z,343.12
2022-11-17T10:55:24.705Z,337.50
2022-11-17T10:56:24.682Z,371.25
2022-11-17T10:57:24.672Z,382.50
2022-11-17T10:58:24.662Z,337.50
2022-11-17T10:59:24.681Z,315.00
2022-11-17T11:00:24.644Z,337.50
2022-11-17T11:01:25.939Z,405.00
2022-11-17T11:02:24.612Z,461.25
2022-11-17T11:03:24.620Z,495.00
2022-11-17T11:04:24.613Z,489.38
2022-11-17T11:05:24.592Z,438.75
2022-11-17T11:06:24.571Z,382.50
2022-11-17T11:07:24.615Z,354.38
2022-11-17T11:08:24.551Z,354.38
2022-11-17T11:09:24.564Z,405.00
2022-11-17T11:10:24.543Z,461.25
2022-11-17T11:11:24.522Z,556.88
2022-11-17T11:12:24.512Z,607.50
2022-11-17T11:13:24.513Z,641.25
2022-11-17T11:14:24.503Z,618.75
2022-11-17T11:15:24.494Z,573.75
2022-11-17T11:16:24.495Z,562.50
2022-11-17T11:17:24.455Z,540.00
2022-11-17T11:18:24.444Z,506.25
2022-11-17T11:19:24.432Z,472.50
2022-11-17T11:20:24.424Z,405.00
2022-11-17T11:21:24.435Z,376.88
2022-11-17T11:22:24.397Z,331.88
2022-11-17T11:23:24.414Z,388.12
2022-11-17T11:24:24.378Z,427.50
2022-11-17T11:25:24.373Z,421.88
2022-11-17T11:26:24.376Z,410.62
2022-11-17T11:27:24.345Z,371.25
2022-11-17T11:28:24.336Z,354.38
2022-11-17T11:29:24.318Z,315.00
2022-11-17T11:30:24.307Z,258.75
2022-11-17T11:31:24.323Z,219.38
2022-11-17T11:32:24.285Z,202.50
2022-11-17T11:33:24.286Z,225.00
2022-11-17T11:34:24.264Z,219.38
2022-11-17T11:35:24.261Z,219.38
2022-11-17T11:36:24.265Z,191.25
2022-11-17T11:37:24.255Z,180.00
2022-11-17T11:38:24.224Z,191.25
2022-11-17T11:39:24.304Z,253.12
2022-11-17T11:40:24.198Z,264.38
2022-11-17T11:41:24.208Z,219.38
2022-11-17T11:42:24.176Z,213.75
2022-11-17T11:43:24.177Z,202.50
2022-11-17T11:44:24.156Z,168.75
2022-11-17T11:45:24.152Z,163.12
2022-11-17T11:46:24.157Z,180.00
2022-11-17T11:47:24.122Z,202.50
2022-11-17T11:48:24.109Z,213.75
2022-11-17T11:49:24.098Z,213.75
2022-11-17T11:50:24.088Z,219.38
2022-11-17T11:51:24.079Z,213.75
2022-11-17T11:52:24.088Z,236.25
2022-11-17T11:53:24.070Z,241.88
2022-11-17T11:54:24.049Z,247.50
2022-11-17T11:55:24.037Z,230.62
2022-11-17T11:56:24.020Z,213.75
2022-11-17T11:57:24.039Z,236.25
2022-11-17T11:58:24.000Z,247.50
2022-11-17T11:59:24.003Z,270.00
2022-11-17T12:00:24.054Z,270.00
2022-11-17T12:01:24.041Z,292.50
2022-11-17T12:02:24.138Z,343.12
2022-11-17T12:03:24.079Z,354.38
2022-11-17T12:04:24.017Z,343.12
2022-11-17T12:05:23.958Z,326.25
2022-11-17T12:06:23.989Z,309.38
2022-11-17T12:07:23.984Z,320.62
2022-11-17T12:08:23.891Z,292.50
2022-11-17T12:09:23.882Z,275.62
2022-11-17T12:10:23.870Z,258.75
2022-11-17T12:11:23.885Z,219.38
2022-11-17T12:12:23.843Z,241.88
2022-11-17T12:13:23.844Z,264.38
2022-11-17T12:14:23.830Z,258.75
2022-11-17T12:15:23.821Z,236.25
2022-11-17T12:16:23.802Z,196.88
2022-11-17T12:17:23.820Z,202.50
2022-11-17T12:18:23.811Z,230.62
2022-11-17T12:19:23.771Z,230.62
2022-11-17T12:20:23.760Z,230.62
2022-11-17T12:21:23.770Z,258.75
2022-11-17T12:22:23.732Z,298.12
2022-11-17T12:23:23.761Z,348.75
2022-11-17T12:24:23.723Z,376.88
2022-11-17T12:25:23.703Z,388.12
2022-11-17T12:26:23.701Z,393.75
2022-11-17T12:27:23.696Z,388.12
2022-11-17T12:28:23.673Z,365.62
2022-11-17T12:29:23.793Z,348.75
2022-11-17T12:30:23.862Z,303.75
2022-11-17T12:31:23.871Z,247.50
2022-11-17T12:32:23.633Z,208.12
2022-11-17T12:33:23.640Z,168.75
2022-11-17T12:34:23.628Z,168.75
2022-11-17T12:35:23.621Z,185.62
2022-11-17T12:36:29.695Z,208.12
2022-11-17T12:37:24.575Z,225.00
2022-11-17T12:38:23.555Z,236.25
2022-11-17T12:39:23.548Z,225.00
2022-11-17T12:40:23.555Z,264.38
2022-11-17T12:41:23.525Z,258.75
2022-11-17T12:42:23.524Z,219.38
2022-11-17T12:43:23.514Z,196.88
2022-11-17T12:44:23.494Z,208.12
2022-11-17T12:45:23.506Z,230.62
2022-11-17T12:46:23.476Z,258.75
2022-11-17T12:47:23.457Z,286.88
2022-11-17T12:48:38.824Z,320.62
2022-11-17T12:49:24.438Z,337.50
2022-11-17T12:50:23.447Z,360.00
2022-11-17T12:51:23.428Z,410.62
2022-11-17T12:52:23.403Z,478.12
2022-11-17T12:53:23.454Z,478.12
2022-11-17T12:54:23.387Z,461.25
2022-11-17T12:55:23.423Z,433.12
2022-11-17T12:56:23.357Z,421.88
2022-11-17T12:57:23.364Z,455.62
2022-11-17T12:58:23.337Z,495.00
2022-11-17T12:59:23.337Z,500.62